Capt Amer — 3FCQ3 — position and weather

sailwx.info

Track history (hours):
 
Tides and Currents Weather Stations Pressure Air Temp Water Temp Dewpoint Dewpoint Depression Visibility Wind Speed Wind Dir Waves Ship Positions

Capt Amer

Last reported at 2015-May-15 05:33 UTC. Time now 2015-May-28 03:57 UTC.
Position N 35°56' W 005°18'.
Warning: this ship's position is 12 days out of date.

; draft 5.1 m.

Type: Cargo ship. MMSI: 373175000.

Date/timePositionNaut miles runAvg speedWind from/ knotsBaromVisibWave heightAir tempDewpointWater temp
2015-May-15 05:33N 35°56' W 005°18'1 1.3
2015-May-15 04:33N 35°55' W 005°19'0 0.0
2015-May-15 03:33N 35°55' W 005°19'0 0.0
2015-May-15 02:33N 35°55' W 005°19'0 0.0
2015-May-15 01:33N 35°55' W 005°19'0 0.0
2015-May-15 00:33N 35°55' W 005°19'0 0.0
2015-May-14 23:33N 35°55' W 005°19'0 0.0
2015-May-14 22:33N 35°55' W 005°19'0 0.0
2015-May-14 21:33N 35°55' W 005°19'0 0.0
2015-May-14 20:33N 35°55' W 005°19'0 0.0
2015-May-14 19:33N 35°55' W 005°19'0 0.0
2015-May-14 18:33N 35°55' W 005°19'0 0.0
2015-May-14 17:33N 35°55' W 005°19'0 0.2
2015-May-14 16:33N 35°55' W 005°20'2 1.5
2015-May-14 15:31N 35°54' W 005°18'0 0.0
2015-May-14 14:31N 35°54' W 005°18'0 0.0
2015-May-14 13:31N 35°54' W 005°18'0 0.0
2015-May-14 12:31N 35°54' W 005°18'0 0.0
2015-May-14 11:31N 35°54' W 005°18'0 0.0
2015-May-14 10:31N 35°54' W 005°18'3 2.8
2015-May-14 09:34N 35°56' W 005°18'5 5.4
2015-May-14 08:34N 35°57' W 005°25'2110.1
2015-May-14 06:26N 35°54' W 005°51'12310.1
2015-May-13 18:14N 36°18' W 008°21'1010.2
2015-May-13 17:17N 36°21' W 008°32'910.3
2015-May-13 16:27N 36°24' W 008°42'1010.1
2015-May-13 15:29N 36°27' W 008°54'1010.1
2015-May-13 14:29N 36°30' W 009°05'1210.3
2015-May-13 13:22N 36°34' W 009°19'810.1
2015-May-13 12:33N 36°40' W 009°26'1010.0
2015-May-13 11:33N 36°48' W 009°33'1010.0
2015-May-13 10:33N 36°58' W 009°36'1110.6
2015-May-13 09:33N 37°08' W 009°39'1110.8
2015-May-13 08:33N 37°19' W 009°42'1110.8
2015-May-13 07:33N 37°29' W 009°46'1111.3
2015-May-13 06:33N 37°40' W 009°48'1111.5
2015-May-13 05:33N 37°52' W 009°52'1111.2
2015-May-13 04:33N 38°03' W 009°55'1111.1
2015-May-13 03:33N 38°13' W 009°58'1111.2
2015-May-13 02:33N 38°24' W 010°02'1111.3
2015-May-13 01:33N 38°35' W 010°05'1111.1
2015-May-13 00:33N 38°46' W 010°08'1211.6
2015-May-12 23:33N 38°58' W 010°07'1211.6
2015-May-12 22:33N 39°09' W 010°06'1211.6
2015-May-12 21:33N 39°21' W 010°07'1111.5
2015-May-12 20:33N 39°32' W 010°08'1211.6
2015-May-12 19:33N 39°44' W 010°09'1110.6
2015-May-12 18:33N 39°51' W 009°59'1111.0
2015-May-12 17:33N 39°60' W 009°50'10 9.7
2015-May-12 16:32N 40°06' W 009°40'11 9.7
2015-May-12 15:23N 40°13' W 009°28'8 9.8
2015-May-12 14:33N 40°18' W 009°20'11 9.7
2015-May-12 13:26N 40°24' W 009°08'13 9.2
2015-May-12 12:04N 40°32' W 008°55'610.0
2015-May-12 11:28N 40°36' W 008°50'5 0.2
2015-May-11 08:31N 40°39' W 008°44'0 0.0
2015-May-11 07:04N 40°39' W 008°44'0 0.0
2015-May-11 06:14N 40°39' W 008°44'0 0.0
2015-May-11 05:31N 40°39' W 008°44'0 0.0
2015-May-11 04:31N 40°39' W 008°44'0 0.0
2015-May-11 03:25N 40°39' W 008°44'0 0.0
2015-May-11 02:31N 40°39' W 008°44'0 0.0
2015-May-11 01:31N 40°39' W 008°44'0 0.0
2015-May-10 19:19N 40°39' W 008°44'0 0.0
2015-May-10 18:13N 40°39' W 008°44'0 0.0
2015-May-10 16:31N 40°39' W 008°44'  
2015-May-06 10:33N 43°45' W 006°29'9 9.0
2015-May-06 09:33N 43°46' W 006°17'9 9.1
2015-May-06 08:33N 43°45' W 006°04'9 9.2
2015-May-06 07:33N 43°45' W 005°51'9 8.3
2015-May-06 06:32N 43°45' W 005°40'8 8.5
2015-May-06 05:33N 43°44' W 005°28'9 8.9
2015-May-06 04:33N 43°42' W 005°16'9 9.1
2015-May-06 03:33N 43°40' W 005°04'9 8.9
2015-May-06 02:31N 43°38' W 004°51'  
Track history (hours):
 
Tides and Currents Weather Stations Pressure Air Temp Water Temp Dewpoint Dewpoint Depression Visibility Wind Speed Wind Dir Waves Ship Positions

Capt Amer

Last reported at 2015-May-15 05:33 UTC. Time now 2015-May-28 03:57 UTC.
Position N 35°56' W 005°18'.
Warning: this ship's position is 12 days out of date.

; draft 5.1 m.

Type: Cargo ship. MMSI: 373175000.

Date/timePositionNaut miles runAvg speedWind from/ knotsBaromVisibWave heightAir tempDewpointWater temp
2015-May-15 05:33N 35°56' W 005°18'1 1.3
2015-May-15 04:33N 35°55' W 005°19'0 0.0
2015-May-15 03:33N 35°55' W 005°19'0 0.0
2015-May-15 02:33N 35°55' W 005°19'0 0.0
2015-May-15 01:33N 35°55' W 005°19'0 0.0
2015-May-15 00:33N 35°55' W 005°19'0 0.0
2015-May-14 23:33N 35°55' W 005°19'0 0.0
2015-May-14 22:33N 35°55' W 005°19'0 0.0
2015-May-14 21:33N 35°55' W 005°19'0 0.0
2015-May-14 20:33N 35°55' W 005°19'0 0.0
2015-May-14 19:33N 35°55' W 005°19'0 0.0
2015-May-14 18:33N 35°55' W 005°19'0 0.0
2015-May-14 17:33N 35°55' W 005°19'0 0.2
2015-May-14 16:33N 35°55' W 005°20'2 1.5
2015-May-14 15:31N 35°54' W 005°18'0 0.0
2015-May-14 14:31N 35°54' W 005°18'0 0.0
2015-May-14 13:31N 35°54' W 005°18'0 0.0
2015-May-14 12:31N 35°54' W 005°18'0 0.0
2015-May-14 11:31N 35°54' W 005°18'0 0.0
2015-May-14 10:31N 35°54' W 005°18'3 2.8
2015-May-14 09:34N 35°56' W 005°18'5 5.4
2015-May-14 08:34N 35°57' W 005°25'2110.1
2015-May-14 06:26N 35°54' W 005°51'12310.1
2015-May-13 18:14N 36°18' W 008°21'1010.2
2015-May-13 17:17N 36°21' W 008°32'910.3
2015-May-13 16:27N 36°24' W 008°42'1010.1
2015-May-13 15:29N 36°27' W 008°54'1010.1
2015-May-13 14:29N 36°30' W 009°05'1210.3
2015-May-13 13:22N 36°34' W 009°19'810.1
2015-May-13 12:33N 36°40' W 009°26'1010.0
2015-May-13 11:33N 36°48' W 009°33'1010.0
2015-May-13 10:33N 36°58' W 009°36'1110.6
2015-May-13 09:33N 37°08' W 009°39'1110.8
2015-May-13 08:33N 37°19' W 009°42'1110.8
2015-May-13 07:33N 37°29' W 009°46'1111.3
2015-May-13 06:33N 37°40' W 009°48'1111.5
2015-May-13 05:33N 37°52' W 009°52'1111.2
2015-May-13 04:33N 38°03' W 009°55'1111.1
2015-May-13 03:33N 38°13' W 009°58'1111.2
2015-May-13 02:33N 38°24' W 010°02'1111.3
2015-May-13 01:33N 38°35' W 010°05'1111.1
2015-May-13 00:33N 38°46' W 010°08'1211.6
2015-May-12 23:33N 38°58' W 010°07'1211.6
2015-May-12 22:33N 39°09' W 010°06'1211.6
2015-May-12 21:33N 39°21' W 010°07'1111.5
2015-May-12 20:33N 39°32' W 010°08'1211.6
2015-May-12 19:33N 39°44' W 010°09'1110.6
2015-May-12 18:33N 39°51' W 009°59'1111.0
2015-May-12 17:33N 39°60' W 009°50'10 9.7
2015-May-12 16:32N 40°06' W 009°40'11 9.7
2015-May-12 15:23N 40°13' W 009°28'8 9.8
2015-May-12 14:33N 40°18' W 009°20'11 9.7
2015-May-12 13:26N 40°24' W 009°08'13 9.2
2015-May-12 12:04N 40°32' W 008°55'610.0
2015-May-12 11:28N 40°36' W 008°50'5 0.2
2015-May-11 08:31N 40°39' W 008°44'0 0.0
2015-May-11 07:04N 40°39' W 008°44'0 0.0
2015-May-11 06:14N 40°39' W 008°44'0 0.0
2015-May-11 05:31N 40°39' W 008°44'0 0.0
2015-May-11 04:31N 40°39' W 008°44'0 0.0
2015-May-11 03:25N 40°39' W 008°44'0 0.0
2015-May-11 02:31N 40°39' W 008°44'0 0.0
2015-May-11 01:31N 40°39' W 008°44'0 0.0
2015-May-10 19:19N 40°39' W 008°44'0 0.0
2015-May-10 18:13N 40°39' W 008°44'0 0.0
2015-May-10 16:31N 40°39' W 008°44'  
2015-May-06 10:33N 43°45' W 006°29'9 9.0
2015-May-06 09:33N 43°46' W 006°17'9 9.1
2015-May-06 08:33N 43°45' W 006°04'9 9.2
2015-May-06 07:33N 43°45' W 005°51'9 8.3
2015-May-06 06:32N 43°45' W 005°40'8 8.5
2015-May-06 05:33N 43°44' W 005°28'9 8.9
2015-May-06 04:33N 43°42' W 005°16'9 9.1
2015-May-06 03:33N 43°40' W 005°04'9 8.9
2015-May-06 02:31N 43°38' W 004°51'  

Dump ship's entire track history